Time;durP1;ratioP1;P1;durP2;ratioP2;P2;SDS_P1;SDS_P2;PMS_P1;PMS_P2;Temp;Humidity;BMP_temperature;BMP_pressure;BME280_temperature;BME280_humidity;BME280_pressure;Samples;Min_cycle;Max_cycle;Signal;HPM_P1;HPM_P2
2023/03/14 00:00:31;;;;;;;;;;;;;;;3.03;59.71;100559.78;4877928;29;19926;-25
2023/03/14 00:02:56;;;;;;;;;;;;;;;3.09;59.51;100570.50;4877524;29;20624;-25
2023/03/14 00:05:22;;;;;;;;;;;;;;;3.21;59.35;100558.69;4877390;29;19924;-24
2023/03/14 00:07:47;;;;;;;;;;;;;;;3.31;59.52;100563.00;4877853;29;19927;-26
2023/03/14 00:10:13;;;;;;;;;;;;;;;3.47;58.28;100565.69;4877582;29;20591;-27
2023/03/14 00:12:39;;;;;;;;;;;;;;;3.05;59.82;100563.09;4860769;29;19926;-26
2023/03/14 00:15:06;;;;;;;;;;;;;;;2.88;60.51;100565.63;4877175;29;20014;-26
2023/03/14 00:17:32;;;;;;;;;;;;;;;3.34;58.73;100567.97;4860446;29;19927;-26
2023/03/14 00:20:03;;;;;;;;;;;;;;;3.47;58.09;100562.25;4877101;29;19924;-28
2023/03/14 00:22:29;;;;;;;;;;;;;;;3.53;58.32;100562.41;4860817;29;20390;-26
2023/03/14 00:24:54;;;;;;;;;;;;;;;3.44;58.79;100560.75;4877180;29;19980;-24
2023/03/14 00:27:19;;;;;;;;;;;;;;;3.23;59.45;100555.91;4877698;29;19920;-26
2023/03/14 00:29:46;;;;;;;;;;;;;;;3.34;58.65;100550.34;4877455;29;19920;-25
2023/03/14 00:32:11;;;;;;;;;;;;;;;3.13;59.05;100548.13;4877028;29;20392;-26
2023/03/14 00:34:36;;;;;;;;;;;;;;;2.79;59.83;100559.47;4877163;29;19920;-28
2023/03/14 00:37:01;;;;;;;;;;;;;;;2.59;61.17;100552.78;4876754;29;19979;-25
2023/03/14 00:39:27;;;;;;;;;;;;;;;2.42;61.74;100551.84;4860521;29;19920;-25
2023/03/14 00:41:52;;;;;;;;;;;;;;;2.45;60.96;100540.16;4877424;29;19926;-25
2023/03/14 00:44:17;;;;;;;;;;;;;;;2.36;61.58;100534.84;4876984;29;19971;-27
2023/03/14 00:46:42;;;;;;;;;;;;;;;2.63;60.78;100533.03;4877267;29;20463;-25
2023/03/14 00:49:08;;;;;;;;;;;;;;;2.73;60.39;100523.22;4876568;29;20051;-25
2023/03/14 00:51:33;;;;;;;;;;;;;;;2.52;60.96;100530.69;4877322;29;19927;-26
2023/03/14 00:53:59;;;;;;;;;;;;;;;2.17;62.00;100533.25;4876736;29;19915;-26
2023/03/14 00:56:24;;;;;;;;;;;;;;;2.26;62.19;100526.22;4860274;29;20388;-27
2023/03/14 00:58:53;;;;;;;;;;;;;;;2.51;61.06;100513.22;4876884;29;20178;-25
2023/03/14 01:01:18;;;;;;;;;;;;;;;2.65;60.52;100510.00;4860052;29;20643;-25
2023/03/14 01:03:44;;;;;;;;;;;;;;;2.16;61.73;100520.22;4876548;29;20023;-25
2023/03/14 01:06:14;;;;;;;;;;;;;;;1.83;63.21;100519.97;4877194;29;19983;-28
2023/03/14 01:08:40;;;;;;;;;;;;;;;1.87;63.34;100505.53;4876741;29;19920;-26
2023/03/14 01:11:06;;;;;;;;;;;;;;;2.09;62.11;100519.19;4859725;29;19920;-24
2023/03/14 01:13:32;;;;;;;;;;;;;;;1.55;63.92;100506.03;4876653;29;20026;-27
2023/03/14 01:16:00;;;;;;;;;;;;;;;1.10;64.85;100507.69;4876281;29;20415;-25
2023/03/14 01:18:26;;;;;;;;;;;;;;;0.67;66.05;100503.88;4876092;29;19975;-25
2023/03/14 01:20:51;;;;;;;;;;;;;;;0.64;66.59;100506.81;4876584;29;20426;-24
2023/03/14 01:23:16;;;;;;;;;;;;;;;0.55;67.05;100502.41;4876088;29;19926;-25
2023/03/14 01:25:41;;;;;;;;;;;;;;;0.56;67.20;100498.81;4876247;29;19979;-26
2023/03/14 01:28:07;;;;;;;;;;;;;;;0.74;66.29;100502.34;4876397;29;19919;-26
2023/03/14 01:30:32;;;;;;;;;;;;;;;1.52;64.19;100496.66;4876298;29;19920;-26
2023/03/14 01:32:57;;;;;;;;;;;;;;;1.87;62.97;100496.81;4875904;29;19988;-26
2023/03/14 01:35:23;;;;;;;;;;;;;;;2.10;62.45;100497.16;4876361;29;19926;-26
2023/03/14 01:37:48;;;;;;;;;;;;;;;2.38;61.73;100492.59;4876109;29;19943;-25
2023/03/14 01:40:16;;;;;;;;;;;;;;;2.28;61.51;100495.31;4876275;29;19920;-26
2023/03/14 01:42:44;;;;;;;;;;;;;;;2.12;62.72;100497.84;4876077;29;19920;-25
2023/03/14 01:45:28;;;;;;;;;;;;;;;2.32;61.20;100488.75;4875776;29;19920;-29
2023/03/14 01:47:53;;;;;;;;;;;;;;;2.21;62.16;100481.13;4876040;29;19988;-25
2023/03/14 01:50:19;;;;;;;;;;;;;;;2.06;62.31;100485.28;4876257;29;20042;-24
2023/03/14 01:52:46;;;;;;;;;;;;;;;1.79;63.29;100492.31;4875726;29;20401;-24
2023/03/14 01:55:17;;;;;;;;;;;;;;;1.64;63.99;100488.56;4875568;29;19920;-26
2023/03/14 01:58:03;;;;;;;;;;;;;;;1.72;64.22;100476.31;4858821;29;19924;-28
2023/03/14 02:00:28;;;;;;;;;;;;;;;1.69;64.67;100476.59;4859101;29;20400;-27
2023/03/14 02:02:58;;;;;;;;;;;;;;;1.81;65.09;100470.13;4875460;29;19967;-25
2023/03/14 02:05:25;;;;;;;;;;;;;;;1.68;65.56;100468.88;4874896;29;19919;-26
2023/03/14 02:07:54;;;;;;;;;;;;;;;2.14;63.71;100474.81;4875468;29;20382;-28
2023/03/14 02:10:22;;;;;;;;;;;;;;;2.29;62.94;100467.19;4875464;29;19919;-26
2023/03/14 02:12:49;;;;;;;;;;;;;;;2.42;62.06;100468.44;4875599;29;19924;-29
2023/03/14 02:15:14;;;;;;;;;;;;;;;2.33;63.16;100472.00;4875484;29;20308;-25
2023/03/14 02:17:41;;;;;;;;;;;;;;;2.06;63.97;100472.13;4875005;29;19935;-25
2023/03/14 02:20:09;;;;;;;;;;;;;;;2.09;62.75;100472.66;4875586;29;19986;-26
2023/03/14 02:22:36;;;;;;;;;;;;;;;1.91;62.68;100477.94;4875369;29;20069;-26
2023/03/14 02:25:02;;;;;;;;;;;;;;;2.17;61.81;100482.44;4857987;29;19924;-25
2023/03/14 02:27:27;;;;;;;;;;;;;;;2.23;61.52;100473.91;4875488;29;19924;-25
2023/03/14 02:29:55;;;;;;;;;;;;;;;1.70;62.57;100483.53;4875296;29;21010;-26
2023/03/14 02:32:22;;;;;;;;;;;;;;;0.90;65.61;100479.88;4875461;29;19956;-25
2023/03/14 02:34:49;;;;;;;;;;;;;;;1.33;65.15;100487.13;4875095;29;20534;-25
2023/03/14 02:37:16;;;;;;;;;;;;;;;1.11;65.24;100477.84;4875009;29;19926;-25
2023/03/14 02:39:44;;;;;;;;;;;;;;;0.67;66.57;100475.00;4875097;29;19924;-25
2023/03/14 02:42:09;;;;;;;;;;;;;;;0.02;68.01;100474.94;4858503;29;20323;-27
2023/03/14 02:44:35;;;;;;;;;;;;;;;0.79;66.96;100468.59;4874991;29;19924;-25
2023/03/14 02:47:01;;;;;;;;;;;;;;;0.25;67.52;100475.44;4873469;29;19982;-28
2023/03/14 02:49:28;;;;;;;;;;;;;;;0.63;67.00;100468.41;4875439;29;19923;-25
2023/03/14 02:51:53;;;;;;;;;;;;;;;0.52;67.58;100465.97;4874681;29;20026;-25
2023/03/14 02:54:19;;;;;;;;;;;;;;;0.67;66.81;100472.38;4874860;29;20023;-25
2023/03/14 02:56:44;;;;;;;;;;;;;;;1.14;65.23;100477.53;4874995;29;19989;-26
2023/03/14 02:59:10;;;;;;;;;;;;;;;1.24;64.56;100471.41;4874730;29;19924;-25
2023/03/14 03:01:35;;;;;;;;;;;;;;;1.43;63.97;100466.03;4875135;29;19920;-25
2023/03/14 03:04:00;;;;;;;;;;;;;;;1.59;63.22;100479.34;4874916;29;20407;-29
2023/03/14 03:06:25;;;;;;;;;;;;;;;1.32;64.53;100471.50;4874822;29;20464;-26
2023/03/14 03:08:51;;;;;;;;;;;;;;;1.12;65.34;100471.59;4874520;29;19930;-24
2023/03/14 03:11:16;;;;;;;;;;;;;;;0.75;66.23;100471.66;4874827;29;19974;-26
2023/03/14 03:13:41;;;;;;;;;;;;;;;0.70;66.40;100473.91;4874796;29;19920;-25
2023/03/14 03:16:07;;;;;;;;;;;;;;;0.70;66.78;100487.03;4875245;29;19920;-25
2023/03/14 03:18:32;;;;;;;;;;;;;;;0.65;67.13;100479.56;4878096;29;19924;-26
2023/03/14 03:21:04;;;;;;;;;;;;;;;0.38;67.74;100481.19;4878233;29;19923;-29
2023/03/14 03:23:30;;;;;;;;;;;;;;;0.32;67.81;100481.75;4861847;29;19924;-25
2023/03/14 03:25:55;;;;;;;;;;;;;;;0.45;67.02;100475.38;4878661;29;19920;-25
2023/03/14 03:28:20;;;;;;;;;;;;;;;0.52;66.13;100481.72;4878566;29;19923;-25
2023/03/14 03:30:46;;;;;;;;;;;;;;;0.35;67.82;100478.03;4878513;29;19920;-25
2023/03/14 03:33:11;;;;;;;;;;;;;;;0.52;66.99;100486.97;4878194;29;20392;-26
2023/03/14 03:35:44;;;;;;;;;;;;;;;0.85;64.99;100488.19;4878116;29;19927;-27
2023/03/14 03:38:11;;;;;;;;;;;;;;;0.87;65.12;100488.88;4861402;29;19920;-27
2023/03/14 03:40:36;;;;;;;;;;;;;;;0.89;65.00;100488.75;4878252;29;19920;-29
2023/03/14 03:43:03;;;;;;;;;;;;;;;0.67;65.79;100480.25;4877949;29;19920;-25
2023/03/14 03:45:29;;;;;;;;;;;;;;;0.42;67.55;100480.91;4878158;29;19963;-25
2023/03/14 03:47:54;;;;;;;;;;;;;;;0.44;67.48;100485.03;4878400;29;20012;-27
2023/03/14 03:50:19;;;;;;;;;;;;;;;0.78;66.82;100485.34;4876507;29;19920;-27
2023/03/14 03:52:44;;;;;;;;;;;;;;;0.66;66.35;100483.88;4877965;29;19927;-26
2023/03/14 03:55:10;;;;;;;;;;;;;;;0.76;66.41;100486.47;4877631;29;19920;-25
2023/03/14 03:57:35;;;;;;;;;;;;;;;0.34;67.14;100490.31;4861193;29;19927;-25
2023/03/14 04:00:00;;;;;;;;;;;;;;;-0.24;69.76;100490.41;4876570;29;19920;-27
2023/03/14 04:02:26;;;;;;;;;;;;;;;-0.41;71.21;100491.91;4877813;29;20383;-25
2023/03/14 04:04:51;;;;;;;;;;;;;;;-0.36;71.62;100483.66;4877514;29;20320;-25
2023/03/14 04:07:16;;;;;;;;;;;;;;;-0.23;70.58;100481.56;4877566;29;19931;-27
2023/03/14 04:09:42;;;;;;;;;;;;;;;0.16;67.88;100477.13;4877748;29;19931;-25
2023/03/14 04:12:07;;;;;;;;;;;;;;;0.15;67.66;100477.25;4877825;29;20040;-25
2023/03/14 04:14:32;;;;;;;;;;;;;;;0.26;67.78;100479.69;4877510;29;20018;-28
2023/03/14 04:16:57;;;;;;;;;;;;;;;0.64;66.09;100480.56;4877255;29;20344;-25
2023/03/14 04:19:23;;;;;;;;;;;;;;;0.82;65.82;100480.63;4876993;29;19928;-27
2023/03/14 04:21:48;;;;;;;;;;;;;;;0.99;64.47;100481.66;4877399;29;19930;-25
2023/03/14 04:24:13;;;;;;;;;;;;;;;0.74;64.47;100470.03;4877472;29;19976;-26
2023/03/14 04:26:38;;;;;;;;;;;;;;;0.45;65.71;100462.25;4877866;29;19963;-26
2023/03/14 04:29:04;;;;;;;;;;;;;;;0.77;64.39;100475.78;4876408;29;20343;-25
2023/03/14 04:31:29;;;;;;;;;;;;;;;0.78;63.79;100460.91;4877378;29;20360;-26
2023/03/14 04:33:54;;;;;;;;;;;;;;;0.08;66.49;100457.78;4877307;29;19920;-27
2023/03/14 04:36:20;;;;;;;;;;;;;;;0.01;67.47;100454.91;4876950;29;19955;-25
2023/03/14 04:38:45;;;;;;;;;;;;;;;-0.07;67.15;100460.03;4877197;29;19930;-25
2023/03/14 04:41:10;;;;;;;;;;;;;;;-0.15;67.88;100457.28;4876837;29;19927;-28
2023/03/14 04:43:36;;;;;;;;;;;;;;;-0.60;70.19;100463.91;4877306;29;19924;-24
2023/03/14 04:46:01;;;;;;;;;;;;;;;-0.37;69.33;100448.72;4876834;29;19923;-25
2023/03/14 04:48:27;;;;;;;;;;;;;;;-0.70;69.47;100458.66;4877236;29;20650;-26
2023/03/14 04:50:52;;;;;;;;;;;;;;;-0.24;68.23;100453.72;4876627;29;19971;-25
2023/03/14 04:53:18;;;;;;;;;;;;;;;-0.27;68.63;100453.97;4860315;29;21236;-25
2023/03/14 04:55:50;;;;;;;;;;;;;;;-0.92;71.73;100449.25;4876964;29;19920;-26
2023/03/14 04:58:15;;;;;;;;;;;;;;;-0.66;70.44;100452.16;4860011;29;19971;-25
2023/03/14 05:00:41;;;;;;;;;;;;;;;-0.71;73.14;100461.41;4876868;29;20407;-25
2023/03/14 05:03:06;;;;;;;;;;;;;;;-0.02;71.11;100457.81;4876302;29;19981;-24
2023/03/14 05:05:31;;;;;;;;;;;;;;;0.33;68.29;100461.63;4876633;29;19991;-28
2023/03/14 05:07:56;;;;;;;;;;;;;;;0.41;69.57;100459.09;4876370;29;20636;-24
2023/03/14 05:10:22;;;;;;;;;;;;;;;0.48;71.12;100459.34;4876732;29;19970;-25
2023/03/14 05:12:47;;;;;;;;;;;;;;;0.65;70.85;100458.56;4876634;29;19947;-23
2023/03/14 05:15:12;;;;;;;;;;;;;;;0.72;71.65;100456.22;4876397;29;19970;-24
2023/03/14 05:17:38;;;;;;;;;;;;;;;0.85;71.27;100461.13;4876078;29;19934;-24
2023/03/14 05:20:08;;;;;;;;;;;;;;;0.71;71.94;100460.63;4876169;29;19923;-24
2023/03/14 05:22:33;;;;;;;;;;;;;;;1.00;71.22;100459.66;4859997;29;19919;-24
2023/03/14 05:24:59;;;;;;;;;;;;;;;1.09;70.52;100453.53;4875949;29;19999;-24
2023/03/14 05:27:24;;;;;;;;;;;;;;;1.12;70.30;100460.28;4876216;29;20369;-24
2023/03/14 05:29:49;;;;;;;;;;;;;;;1.20;70.36;100457.75;4876292;29;19923;-28
2023/03/14 05:32:15;;;;;;;;;;;;;;;1.00;71.31;100457.88;4876151;29;19954;-26
2023/03/14 05:34:40;;;;;;;;;;;;;;;0.99;71.90;100464.09;4875919;29;20443;-24
2023/03/14 05:37:05;;;;;;;;;;;;;;;0.90;72.67;100448.38;4876076;29;19928;-27
2023/03/14 05:39:30;;;;;;;;;;;;;;;1.06;70.88;100464.31;4876312;29;19927;-25
2023/03/14 05:41:56;;;;;;;;;;;;;;;1.18;70.47;100452.63;4876406;29;19975;-25
2023/03/14 05:44:21;;;;;;;;;;;;;;;1.31;70.45;100459.31;4876210;29;20369;-25
2023/03/14 05:46:46;;;;;;;;;;;;;;;1.69;69.76;100455.56;4876023;29;19927;-28
2023/03/14 05:49:12;;;;;;;;;;;;;;;1.76;68.84;100453.19;4875540;29;20371;-25
2023/03/14 05:51:37;;;;;;;;;;;;;;;1.73;69.01;100466.63;4875961;29;19931;-25
2023/03/14 05:54:02;;;;;;;;;;;;;;;1.92;68.40;100461.19;4875943;29;19963;-26
2023/03/14 05:56:28;;;;;;;;;;;;;;;2.07;68.17;100456.22;4875695;29;20057;-30
2023/03/14 05:58:53;;;;;;;;;;;;;;;2.46;66.83;100457.59;4875793;29;19927;-26
2023/03/14 06:01:18;;;;;;;;;;;;;;;2.24;67.04;100453.69;4875609;29;19953;-24
2023/03/14 06:03:43;;;;;;;;;;;;;;;2.51;66.09;100458.75;4875408;29;19920;-26
2023/03/14 06:06:09;;;;;;;;;;;;;;;2.51;66.62;100456.13;4875989;29;20281;-26
2023/03/14 06:08:34;;;;;;;;;;;;;;;2.81;64.69;100457.41;4876108;29;19924;-26
2023/03/14 06:10:59;;;;;;;;;;;;;;;3.03;64.21;100457.84;4875712;29;20412;-25
2023/03/14 06:13:25;;;;;;;;;;;;;;;3.33;61.84;100464.34;4875580;29;20400;-25
2023/03/14 06:15:50;;;;;;;;;;;;;;;2.98;62.77;100465.38;4874149;29;19920;-26
2023/03/14 06:18:15;;;;;;;;;;;;;;;3.09;64.13;100467.75;4875243;29;19975;-27
2023/03/14 06:20:41;;;;;;;;;;;;;;;3.26;62.44;100459.88;4876444;29;20059;-25
2023/03/14 06:23:06;;;;;;;;;;;;;;;3.63;60.95;100472.63;4876436;29;19927;-25
2023/03/14 06:25:32;;;;;;;;;;;;;;;3.93;59.47;100463.22;4876425;29;20003;-26
2023/03/14 06:27:57;;;;;;;;;;;;;;;3.95;59.23;100458.59;4876368;29;19920;-26
2023/03/14 06:30:23;;;;;;;;;;;;;;;4.11;59.46;100455.13;4876463;29;19920;-26
2023/03/14 06:32:48;;;;;;;;;;;;;;;4.37;57.70;100454.09;4876241;29;20002;-26
2023/03/14 06:35:13;;;;;;;;;;;;;;;4.52;57.62;100456.88;4875770;29;19942;-27
2023/03/14 06:37:39;;;;;;;;;;;;;;;4.85;56.70;100452.28;4876443;29;19920;-25
2023/03/14 06:40:07;;;;;;;;;;;;;;;5.17;56.32;100456.59;4876302;29;20336;-25
2023/03/14 06:42:32;;;;;;;;;;;;;;;5.26;54.84;100465.28;4859511;29;19920;-26
2023/03/14 06:44:57;;;;;;;;;;;;;;;5.43;55.40;100466.00;4876012;29;19943;-26
2023/03/14 06:47:22;;;;;;;;;;;;;;;5.70;53.20;100461.19;4875887;29;19920;-26
2023/03/14 06:49:48;;;;;;;;;;;;;;;5.70;53.43;100455.91;4876266;29;19920;-26
2023/03/14 06:52:13;;;;;;;;;;;;;;;6.04;52.13;100448.34;4875762;29;19943;-26
2023/03/14 06:54:38;;;;;;;;;;;;;;;6.00;52.75;100452.38;4876014;29;19920;-26
2023/03/14 06:57:04;;;;;;;;;;;;;;;6.25;50.50;100460.06;4875698;29;19920;-29
2023/03/14 06:59:29;;;;;;;;;;;;;;;5.92;51.94;100462.19;4875938;29;19935;-25
2023/03/14 07:01:54;;;;;;;;;;;;;;;5.95;51.28;100446.00;4875999;29;19919;-26
2023/03/14 07:04:19;;;;;;;;;;;;;;;6.26;52.82;100455.63;4875710;29;19927;-26
2023/03/14 07:06:46;;;;;;;;;;;;;;;6.04;52.57;100458.13;4876179;29;19962;-26
2023/03/14 07:09:12;;;;;;;;;;;;;;;6.43;51.17;100454.44;4858949;29;19924;-25
2023/03/14 07:11:37;;;;;;;;;;;;;;;6.45;50.27;100449.78;4859195;29;19927;-24
2023/03/14 07:14:02;;;;;;;;;;;;;;;6.60;50.13;100449.81;4875775;29;19920;-25
2023/03/14 07:16:31;;;;;;;;;;;;;;;6.63;50.50;100444.94;4875844;29;20015;-27
2023/03/14 07:18:56;;;;;;;;;;;;;;;6.76;49.50;100436.34;4873622;29;19931;-26
2023/03/14 07:21:21;;;;;;;;;;;;;;;6.83;49.65;100439.91;4875979;29;19924;-26
2023/03/14 07:23:47;;;;;;;;;;;;;;;6.92;49.79;100437.13;4875767;29;19920;-26
2023/03/14 07:26:12;;;;;;;;;;;;;;;7.00;50.15;100431.72;4875750;29;20072;-26
2023/03/14 07:28:37;;;;;;;;;;;;;;;7.10;48.05;100434.91;4875736;29;19920;-27
2023/03/14 07:31:03;;;;;;;;;;;;;;;7.31;49.98;100427.97;4875244;29;19935;-25
2023/03/14 07:33:28;;;;;;;;;;;;;;;7.63;47.14;100432.78;4875601;29;19919;-25
2023/03/14 07:35:53;;;;;;;;;;;;;;;7.56;49.75;100418.66;4875654;29;20304;-26
2023/03/14 07:38:19;;;;;;;;;;;;;;;7.85;47.22;100422.97;4875663;29;19927;-26
2023/03/14 07:40:44;;;;;;;;;;;;;;;7.73;48.40;100415.72;4875762;29;19920;-26
2023/03/14 07:43:09;;;;;;;;;;;;;;;8.09;48.07;100404.97;4875265;29;19971;-26
2023/03/14 07:45:34;;;;;;;;;;;;;;;8.12;46.56;100409.06;4875587;29;20023;-27
2023/03/14 07:48:01;;;;;;;;;;;;;;;8.39;44.98;100416.19;4875053;29;20381;-26
2023/03/14 07:50:27;;;;;;;;;;;;;;;8.38;47.40;100408.41;4874381;29;19980;-26
2023/03/14 07:52:53;;;;;;;;;;;;;;;8.49;44.96;100409.72;4875446;29;20349;-26
2023/03/14 07:55:18;;;;;;;;;;;;;;;8.76;44.66;100403.50;4858709;29;19926;-27
2023/03/14 07:57:44;;;;;;;;;;;;;;;8.53;44.73;100395.03;4875521;29;19920;-26
2023/03/14 08:00:10;;;;;;;;;;;;;;;8.48;43.87;100398.28;4875443;29;20341;-26
2023/03/14 08:02:36;;;;;;;;;;;;;;;8.96;42.73;100394.78;4858500;29;19928;-26
2023/03/14 08:05:02;;;;;;;;;;;;;;;9.11;43.47;100392.75;4878458;29;19979;-28
2023/03/14 08:07:27;;;;;;;;;;;;;;;9.14;42.22;100386.25;4862051;29;20006;-27
2023/03/14 08:09:53;;;;;;;;;;;;;;;9.03;42.16;100384.97;4878675;29;20031;-26
2023/03/14 08:12:18;;;;;;;;;;;;;;;9.00;42.25;100385.38;4878839;29;20315;-26
2023/03/14 08:14:43;;;;;;;;;;;;;;;9.50;41.72;100379.72;4878587;29;20365;-26
2023/03/14 08:17:09;;;;;;;;;;;;;;;9.68;41.81;100374.59;4878140;29;19975;-24
2023/03/14 08:19:34;;;;;;;;;;;;;;;9.76;39.58;100389.56;4878539;29;19928;-25
2023/03/14 08:21:59;;;;;;;;;;;;;;;9.49;42.14;100380.75;4878702;29;19920;-28
2023/03/14 08:24:25;;;;;;;;;;;;;;;9.82;42.64;100383.41;4878712;29;19924;-26
2023/03/14 08:26:50;;;;;;;;;;;;;;;9.93;41.46;100380.16;4878414;29;19927;-26
2023/03/14 08:29:15;;;;;;;;;;;;;;;10.04;41.31;100384.81;4878764;29;19920;-27
2023/03/14 08:31:40;;;;;;;;;;;;;;;10.36;38.39;100377.00;4878125;29;19953;-26
2023/03/14 08:34:06;;;;;;;;;;;;;;;10.21;39.68;100376.38;4878798;29;19958;-26
2023/03/14 08:36:32;;;;;;;;;;;;;;;9.97;40.47;100373.38;4861273;29;20396;-25
2023/03/14 08:38:57;;;;;;;;;;;;;;;10.21;39.92;100366.53;4878080;29;19920;-26
2023/03/14 08:41:22;;;;;;;;;;;;;;;10.41;39.88;100363.84;4878126;29;20040;-29
2023/03/14 08:43:48;;;;;;;;;;;;;;;10.09;41.17;100357.56;4878119;29;19920;-25
2023/03/14 08:46:13;;;;;;;;;;;;;;;9.57;41.08;100351.28;4877941;29;20500;-26
2023/03/14 08:48:38;;;;;;;;;;;;;;;9.60;40.77;100343.69;4878272;29;19927;-26
2023/03/14 08:51:12;;;;;;;;;;;;;;;10.13;41.91;100341.97;4877915;29;20357;-26
2023/03/14 08:53:37;;;;;;;;;;;;;;;10.35;40.80;100339.88;4859999;29;20468;-27
2023/03/14 08:56:05;;;;;;;;;;;;;;;10.47;39.78;100332.06;4876955;29;20063;-26
2023/03/14 08:58:30;;;;;;;;;;;;;;;10.86;39.19;100339.03;4876791;29;20023;-36
2023/03/14 09:00:56;;;;;;;;;;;;;;;10.92;39.13;100332.03;4876567;29;20067;-27
2023/03/14 09:03:22;;;;;;;;;;;;;;;10.69;39.55;100325.38;4876975;29;20486;-27
2023/03/14 09:05:48;;;;;;;;;;;;;;;10.90;39.81;100321.56;4875450;29;19924;-25
2023/03/14 09:08:13;;;;;;;;;;;;;;;10.61;37.82;100328.31;4877001;29;20288;-27
2023/03/14 09:10:39;;;;;;;;;;;;;;;11.21;37.97;100326.06;4876633;29;19927;-26
2023/03/14 09:13:04;;;;;;;;;;;;;;;11.76;35.48;100319.25;4876595;29;19920;-26
2023/03/14 09:15:29;;;;;;;;;;;;;;;11.69;36.28;100311.31;4876101;29;19924;-26
2023/03/14 09:17:54;;;;;;;;;;;;;;;11.59;35.83;100314.50;4876498;29;20504;-26
2023/03/14 09:20:20;;;;;;;;;;;;;;;11.66;35.40;100307.22;4876588;29;19927;-26
2023/03/14 09:22:45;;;;;;;;;;;;;;;11.54;35.00;100295.63;4876657;29;19932;-27
2023/03/14 09:25:11;;;;;;;;;;;;;;;12.11;35.71;100300.81;4876294;29;19926;-29
2023/03/14 09:27:36;;;;;;;;;;;;;;;12.13;35.82;100289.91;4876605;29;19924;-26
2023/03/14 09:30:02;;;;;;;;;;;;;;;12.63;35.16;100279.00;4876108;29;20369;-27
2023/03/14 09:32:27;;;;;;;;;;;;;;;12.40;35.43;100277.88;4876575;29;20407;-26
2023/03/14 09:34:53;;;;;;;;;;;;;;;11.98;36.00;100274.25;4876263;29;19919;-27
2023/03/14 09:37:19;;;;;;;;;;;;;;;12.11;37.39;100270.63;4876005;29;19923;-27
2023/03/14 09:39:45;;;;;;;;;;;;;;;12.06;34.63;100272.09;4876222;29;19919;-27
2023/03/14 09:42:14;;;;;;;;;;;;;;;12.23;35.38;100266.97;4876391;29;19931;-25
2023/03/14 09:44:45;;;;;;;;;;;;;;;12.88;33.76;100256.63;4875735;29;19919;-27
2023/03/14 09:47:12;;;;;;;;;;;;;;;12.73;34.32;100255.19;4858869;29;20006;-29
2023/03/14 09:49:39;;;;;;;;;;;;;;;12.60;34.54;100242.00;4876082;29;20014;-26
2023/03/14 09:52:10;;;;;;;;;;;;;;;12.37;35.12;100235.53;4859195;29;20010;-26
2023/03/14 09:54:55;;;;;;;;;;;;;;;12.72;34.06;100242.84;4876015;29;19920;-29
2023/03/14 09:57:23;;;;;;;;;;;;;;;12.50;34.53;100245.22;4875303;29;19924;-26
2023/03/14 09:59:49;;;;;;;;;;;;;;;13.06;31.47;100240.47;4875984;29;20027;-26
2023/03/14 10:02:17;;;;;;;;;;;;;;;13.59;32.16;100231.56;4875806;29;19923;-29
2023/03/14 10:04:44;;;;;;;;;;;;;;;13.64;31.32;100238.88;4859012;29;19924;-26
2023/03/14 10:07:19;;;;;;;;;;;;;;;13.60;31.70;100221.66;4875496;29;19924;-25
2023/03/14 10:09:45;;;;;;;;;;;;;;;13.13;31.98;100221.63;4858831;29;19930;-26
2023/03/14 10:12:11;;;;;;;;;;;;;;;13.58;31.74;100216.50;4875667;29;20385;-30
2023/03/14 10:14:44;;;;;;;;;;;;;;;14.20;31.16;100218.59;4875444;29;19924;-28
2023/03/14 10:17:11;;;;;;;;;;;;;;;13.85;30.74;100210.63;4875441;29;19959;-26
2023/03/14 10:19:36;;;;;;;;;;;;;;;13.27;30.54;100206.97;4858590;29;19935;-26
2023/03/14 10:22:03;;;;;;;;;;;;;;;13.83;31.19;100204.69;4875228;29;19920;-26
2023/03/14 10:24:30;;;;;;;;;;;;;;;13.66;31.02;100194.72;4858746;29;19919;-26
2023/03/14 10:27:02;;;;;;;;;;;;;;;14.34;32.48;100178.88;4874605;29;20396;-26
2023/03/14 10:29:27;;;;;;;;;;;;;;;14.96;30.78;100179.94;4858498;29;19926;-26
2023/03/14 10:31:53;;;;;;;;;;;;;;;14.36;31.48;100175.94;4875345;29;19920;-26
2023/03/14 10:34:25;;;;;;;;;;;;;;;14.18;30.96;100179.63;4875047;29;19977;-27
2023/03/14 10:36:54;;;;;;;;;;;;;;;14.56;30.63;100164.78;4858364;29;20435;-28
2023/03/14 10:39:28;;;;;;;;;;;;;;;14.74;30.95;100161.06;4874965;29;19924;-25
2023/03/14 10:42:14;;;;;;;;;;;;;;;14.62;29.69;100163.81;4858583;29;19930;-26
2023/03/14 10:44:40;;;;;;;;;;;;;;;14.51;28.98;100168.19;4875084;29;19924;-26
2023/03/14 10:47:06;;;;;;;;;;;;;;;14.80;29.54;100147.47;4858004;29;20381;-26
2023/03/14 10:49:33;;;;;;;;;;;;;;;14.80;28.50;100141.28;4875095;29;19916;-26
2023/03/14 10:52:13;;;;;;;;;;;;;;;14.87;29.24;100136.56;4858419;29;20456;-26
2023/03/14 10:54:39;;;;;;;;;;;;;;;15.10;29.10;100122.16;4858170;29;19920;-27
2023/03/14 10:57:06;;;;;;;;;;;;;;;15.24;28.70;100123.41;4874795;29;19920;-26
2023/03/14 10:59:42;;;;;;;;;;;;;;;14.78;28.61;100103.94;4857989;29;20358;-26
2023/03/14 11:02:10;;;;;;;;;;;;;;;15.53;29.28;100099.06;4858440;29;19928;-25
2023/03/14 11:04:41;;;;;;;;;;;;;;;15.53;28.08;100092.84;4874800;29;19998;-27
2023/03/14 11:07:15;;;;;;;;;;;;;;;15.76;29.91;100076.47;4874837;29;19927;-26
2023/03/14 11:09:44;;;;;;;;;;;;;;;15.88;28.98;100089.78;4875025;29;19989;-26
2023/03/14 11:12:15;;;;;;;;;;;;;;;15.94;29.30;100083.41;4874755;29;20308;-26
2023/03/14 11:14:46;;;;;;;;;;;;;;;16.25;28.80;100083.69;4874940;29;19930;-26
2023/03/14 11:17:14;;;;;;;;;;;;;;;15.53;28.03;100071.34;4874719;29;20019;-27
2023/03/14 11:19:43;;;;;;;;;;;;;;;16.59;27.65;100075.31;4874742;29;19932;-25
2023/03/14 11:22:27;;;;;;;;;;;;;;;16.80;27.88;100063.63;4858045;29;19920;-26
2023/03/14 11:25:07;;;;;;;;;;;;;;;17.29;26.21;100042.88;4874767;29;20424;-28
2023/03/14 11:27:39;;;;;;;;;;;;;;;16.56;26.94;100040.84;4858082;29;19946;-26
2023/03/14 11:30:05;;;;;;;;;;;;;;;17.24;27.39;100033.72;4858048;29;19920;-27
2023/03/14 11:32:31;;;;;;;;;;;;;;;16.74;28.82;100021.59;4857900;29;19923;-25
2023/03/14 11:35:01;;;;;;;;;;;;;;;16.70;27.28;100019.69;4874198;29;19971;-25
2023/03/14 11:37:33;;;;;;;;;;;;;;;16.61;27.03;100017.47;4875649;29;19920;-30
2023/03/14 11:40:04;;;;;;;;;;;;;;;16.85;26.80;100007.09;4861544;29;20513;-28
2023/03/14 11:42:32;;;;;;;;;;;;;;;18.01;24.70;100001.50;4877420;29;21310;-26
2023/03/14 11:44:59;;;;;;;;;;;;;;;17.15;26.27;99997.56;4878050;29;19931;-26
2023/03/14 11:47:42;;;;;;;;;;;;;;;17.58;26.44;99992.81;4861230;29;20309;-26
2023/03/14 11:50:14;;;;;;;;;;;;;;;17.44;26.51;99989.00;4878305;29;19968;-26
2023/03/14 11:52:46;;;;;;;;;;;;;;;18.48;25.07;99978.78;4878238;29;19920;-26
2023/03/14 11:55:11;;;;;;;;;;;;;;;17.94;25.23;99979.41;4877808;29;20034;-26
2023/03/14 11:57:37;;;;;;;;;;;;;;;17.73;25.90;99972.34;4878068;29;20051;-26
2023/03/14 12:00:12;;;;;;;;;;;;;;;17.82;25.70;99965.34;4877848;29;20026;-26
2023/03/14 12:02:53;;;;;;;;;;;;;;;17.98;25.44;99958.06;4878142;29;19920;-28
2023/03/14 12:05:39;;;;;;;;;;;;;;;18.09;25.06;99953.50;4876391;29;20328;-27
2023/03/14 12:08:11;;;;;;;;;;;;;;;18.21;25.37;99935.13;4877886;29;19926;-27
2023/03/14 12:10:45;;;;;;;;;;;;;;;17.52;26.47;99933.75;4877678;29;20018;-26
2023/03/14 12:13:11;;;;;;;;;;;;;;;17.47;26.36;99926.50;4877438;29;19927;-31
2023/03/14 12:16:06;;;;;;;;;;;;;;;17.22;25.77;99922.69;4877699;29;19983;-27
2023/03/14 12:18:38;;;;;;;;;;;;;;;18.81;24.23;99900.91;4860961;29;19996;-26
2023/03/14 12:21:05;;;;;;;;;;;;;;;18.73;25.49;99897.97;4876296;29;20046;-26
2023/03/14 12:23:41;;;;;;;;;;;;;;;18.48;24.96;99886.97;4860759;29;19924;-26
2023/03/14 12:26:07;;;;;;;;;;;;;;;18.90;23.69;99889.53;4860813;29;19928;-26
2023/03/14 12:28:33;;;;;;;;;;;;;;;19.57;24.87;99879.88;4860761;29;19923;-26
2023/03/14 12:31:18;;;;;;;;;;;;;;;18.36;24.70;99877.59;4877207;29;19924;-25
2023/03/14 12:34:01;;;;;;;;;;;;;;;19.97;24.47;99875.25;4877257;29;19986;-27
2023/03/14 12:36:53;;;;;;;;;;;;;;;19.57;22.57;99869.06;4877371;29;19926;-28
2023/03/14 12:39:27;;;;;;;;;;;;;;;19.71;22.85;99868.44;4860432;29;19927;-28
2023/03/14 12:42:01;;;;;;;;;;;;;;;19.30;23.14;99858.75;4877038;29;19924;-27